createdAt,value
2019-04-14T00:01:36.976Z,20.27
2019-04-14T00:04:13.925Z,20.20
2019-04-14T00:06:44.185Z,21.37
2019-04-14T00:09:16.254Z,21.20
2019-04-14T00:11:46.376Z,21.83
2019-04-14T00:14:16.393Z,20.43
2019-04-14T00:16:46.673Z,19.87
2019-04-14T00:19:15.524Z,18.83
2019-04-14T00:21:45.451Z,18.50
2019-04-14T00:24:14.782Z,19.40
2019-04-14T00:26:44.517Z,19.47
2019-04-14T00:29:13.494Z,20.03
2019-04-14T00:31:43.322Z,18.70
2019-04-14T00:34:35.310Z,20.70
2019-04-14T00:37:29.495Z,19.13
2019-04-14T00:40:03.954Z,20.10
2019-04-14T00:42:45.421Z,20.03
2019-04-14T00:45:32.178Z,21.20
2019-04-14T00:48:09.077Z,19.13
2019-04-14T00:50:31.996Z,20.10
2019-04-14T00:53:01.251Z,18.70
2019-04-14T00:55:31.441Z,20.03
2019-04-14T00:58:01.625Z,20.17
2019-04-14T01:00:32.026Z,18.37
2019-04-14T01:03:01.037Z,20.00
2019-04-14T01:05:32.628Z,20.57
2019-04-14T01:08:00.961Z,19.40
2019-04-14T01:10:32.785Z,19.23
2019-04-14T01:13:02.855Z,19.60
2019-04-14T01:15:44.854Z,20.83
2019-04-14T01:18:03.526Z,20.03
2019-04-14T01:20:33.865Z,20.27
2019-04-14T01:23:04.082Z,18.77
2019-04-14T01:25:33.197Z,20.60
2019-04-14T01:28:02.505Z,20.33
2019-04-14T01:30:32.628Z,20.83
2019-04-14T01:33:03.288Z,19.90
2019-04-14T01:35:33.440Z,20.07
2019-04-14T01:38:03.681Z,19.43
2019-04-14T01:40:33.791Z,20.23
2019-04-14T01:43:03.836Z,20.93
2019-04-14T01:45:34.563Z,20.93
2019-04-14T01:48:03.856Z,20.73
2019-04-14T01:50:49.481Z,21.50
2019-04-14T01:53:29.299Z,20.83
2019-04-14T01:56:05.699Z,20.80
2019-04-14T01:58:44.710Z,20.43
2019-04-14T02:01:21.715Z,21.10
2019-04-14T02:03:51.932Z,20.27
2019-04-14T02:06:22.323Z,19.70
2019-04-14T02:08:52.206Z,20.37
2019-04-14T02:11:22.536Z,19.55
2019-04-14T02:14:37.195Z,20.83
2019-04-14T02:57:01.992Z,21.07
2019-04-14T02:59:19.717Z,20.83
2019-04-14T03:02:10.299Z,19.43
2019-04-14T03:04:25.825Z,20.60
2019-04-14T03:06:55.157Z,21.13
2019-04-14T03:09:38.793Z,21.30
2019-04-14T03:14:31.210Z,21.43
2019-04-14T03:20:20.730Z,19.47
2019-04-14T03:22:43.898Z,20.00
2019-04-14T03:25:09.797Z,21.83
2019-04-14T03:27:54.748Z,22.17
2019-04-14T03:36:08.984Z,20.83
2019-04-14T03:43:11.293Z,22.83
2019-04-14T03:45:45.119Z,21.13
2019-04-14T03:48:48.629Z,21.07
2019-04-14T03:50:37.058Z,21.40
2019-04-14T03:55:58.506Z,21.37
2019-04-14T03:58:22.591Z,22.00
2019-04-14T04:00:51.656Z,20.40
2019-04-14T04:03:21.673Z,21.40
2019-04-14T04:05:52.077Z,23.50
2019-04-14T04:08:22.248Z,22.87
2019-04-14T04:10:51.825Z,21.70
2019-04-14T04:13:21.995Z,21.07
2019-04-14T04:15:52.015Z,23.17
2019-04-14T04:18:24.107Z,21.20
2019-04-14T04:21:09.546Z,21.27
2019-04-14T04:24:00.314Z,20.77
2019-04-14T04:26:51.793Z,20.90
2019-04-14T04:29:37.829Z,22.23
2019-04-14T04:32:29.761Z,23.10
2019-04-14T04:35:08.555Z,22.40
2019-04-14T04:37:50.190Z,22.80
2019-04-14T04:40:24.941Z,22.60
2019-04-14T04:42:54.819Z,22.63
2019-04-14T04:45:23.955Z,21.37
2019-04-14T04:47:53.499Z,21.00
2019-04-14T04:50:22.416Z,23.87
2019-04-14T04:52:51.816Z,22.90
2019-04-14T04:55:21.989Z,22.33
2019-04-14T04:57:51.054Z,21.90
2019-04-14T05:00:22.204Z,22.27
2019-04-14T05:02:51.085Z,22.50
2019-04-14T05:05:56.011Z,21.07
2019-04-14T05:08:26.198Z,21.10
2019-04-14T05:11:01.119Z,22.80
2019-04-14T05:13:35.931Z,21.73
2019-04-14T05:16:06.241Z,21.80
2019-04-14T05:18:35.552Z,24.23
2019-04-14T05:21:05.961Z,21.67
2019-04-14T05:23:35.089Z,22.90
2019-04-14T05:26:04.868Z,21.33
2019-04-14T05:28:33.707Z,23.57
2019-04-14T05:31:03.340Z,22.67
2019-04-14T05:33:33.565Z,23.57
2019-04-14T05:36:06.257Z,22.10
2019-04-14T05:38:36.653Z,22.73
2019-04-14T05:41:06.869Z,22.13
2019-04-14T05:43:56.568Z,22.00
2019-04-14T05:46:23.066Z,23.67
2019-04-14T05:48:52.071Z,22.40
2019-04-14T05:51:23.125Z,22.53
2019-04-14T05:53:52.397Z,21.50
2019-04-14T05:56:21.624Z,22.80
2019-04-14T05:58:51.528Z,22.50
2019-04-14T06:01:27.050Z,22.13
2019-04-14T06:03:56.144Z,22.07
2019-04-14T06:06:25.250Z,23.23
2019-04-14T06:08:54.326Z,22.13
2019-04-14T06:11:23.329Z,23.60
2019-04-14T06:13:52.385Z,22.50
2019-04-14T06:16:29.689Z,21.83
2019-04-14T06:18:58.607Z,21.83
2019-04-14T06:21:27.645Z,23.03
2019-04-14T06:23:56.636Z,23.53
2019-04-14T06:26:25.563Z,22.33
2019-04-14T06:28:56.570Z,22.80
2019-04-14T06:31:46.344Z,23.03
2019-04-14T06:34:20.023Z,24.03
2019-04-14T06:36:59.060Z,23.13
2019-04-14T06:39:36.979Z,23.43
2019-04-14T06:42:06.112Z,25.30
2019-04-14T06:44:36.109Z,23.33
2019-04-14T06:47:05.191Z,23.97
2019-04-14T06:49:48.223Z,24.50
2019-04-14T06:52:07.087Z,24.17
2019-04-14T06:54:36.116Z,23.87
2019-04-14T06:57:05.223Z,23.37
2019-04-14T06:59:36.193Z,24.57
2019-04-14T07:02:05.259Z,24.20
2019-04-14T07:04:34.246Z,24.30
2019-04-14T07:07:03.172Z,24.13
2019-04-14T07:09:33.244Z,24.80
2019-04-14T07:12:02.391Z,24.40
2019-04-14T07:14:32.089Z,25.23
2019-04-14T07:17:01.344Z,24.50
2019-04-14T07:19:39.806Z,26.30
2019-04-14T07:22:08.859Z,26.50
2019-04-14T07:24:37.962Z,25.03
2019-04-14T07:27:06.855Z,23.80
2019-04-14T07:29:42.114Z,24.70
2019-04-14T07:32:40.600Z,24.80
2019-04-14T07:35:34.463Z,22.23
2019-04-14T07:38:10.644Z,24.13
2019-04-14T07:41:04.383Z,24.27
2019-04-14T07:43:47.112Z,22.07
2019-04-14T07:46:49.217Z,23.77
2019-04-14T07:49:39.935Z,23.17
2019-04-14T07:52:40.767Z,24.43
2019-04-14T07:55:31.724Z,23.47
2019-04-14T07:58:06.500Z,22.67
2019-04-14T08:00:52.632Z,23.40
2019-04-14T08:03:33.548Z,23.00
2019-04-14T08:06:02.530Z,23.03
2019-04-14T08:08:31.384Z,25.50
2019-04-14T08:11:00.372Z,23.87
2019-04-14T08:13:31.634Z,24.67
2019-04-14T08:16:00.743Z,23.87
2019-04-14T08:18:29.961Z,22.17
2019-04-14T08:21:00.681Z,24.63
2019-04-14T08:23:29.676Z,23.70
2019-04-14T08:25:58.760Z,22.37
2019-04-14T08:28:34.981Z,22.63
2019-04-14T08:31:04.048Z,24.63
2019-04-14T08:33:33.192Z,24.17
2019-04-14T08:36:13.328Z,21.83
2019-04-14T08:38:42.407Z,20.83
2019-04-14T08:41:11.418Z,20.70
2019-04-14T08:44:02.585Z,24.37
2019-04-14T08:46:49.844Z,20.03
2019-04-14T08:49:49.750Z,20.87
2019-04-14T08:52:36.088Z,22.43
2019-04-14T08:55:16.283Z,22.60
2019-04-14T08:57:52.814Z,19.87
2019-04-14T09:00:32.114Z,22.53
2019-04-14T09:03:20.140Z,21.30
2019-04-14T09:06:03.470Z,22.00
2019-04-14T09:08:36.792Z,22.37
2019-04-14T09:11:07.463Z,23.53
2019-04-14T09:13:42.536Z,20.17
2019-04-14T09:16:11.491Z,23.03
2019-04-14T09:18:40.594Z,22.75
2019-04-14T09:21:09.451Z,19.73
2019-04-14T09:23:38.522Z,22.60
2019-04-14T09:26:07.572Z,21.90
2019-04-14T09:28:36.575Z,20.53
2019-04-14T09:31:05.609Z,22.00
2019-04-14T09:33:37.927Z,20.70
2019-04-14T09:36:07.038Z,20.03
2019-04-14T09:38:36.031Z,21.60
2019-04-14T09:41:05.129Z,19.00
2019-04-14T09:43:34.064Z,22.67
2019-04-14T09:46:03.198Z,20.83
2019-04-14T09:48:32.123Z,19.07
2019-04-14T09:51:09.211Z,18.97
2019-04-14T09:53:42.648Z,19.53
2019-04-14T09:56:11.740Z,20.93
2019-04-14T09:58:40.984Z,17.60
2019-04-14T10:01:10.066Z,18.40
2019-04-14T10:03:43.017Z,18.53
2019-04-14T10:06:13.058Z,19.77
2019-04-14T10:08:44.150Z,19.10
2019-04-14T10:11:15.421Z,21.50
2019-04-14T10:13:52.476Z,18.73
2019-04-14T10:16:21.545Z,18.40
2019-04-14T10:18:50.678Z,19.03
2019-04-14T10:21:19.705Z,19.13
2019-04-14T10:23:51.843Z,17.97
2019-04-14T10:26:24.226Z,17.87
2019-04-14T10:29:00.255Z,18.70
2019-04-14T10:31:29.354Z,19.43
2019-04-14T10:33:58.333Z,18.27
2019-04-14T10:36:27.554Z,17.47
2019-04-14T10:38:56.588Z,19.60
2019-04-14T10:41:25.506Z,19.67
2019-04-14T10:43:55.594Z,17.87
2019-04-14T10:46:24.630Z,18.40
2019-04-14T10:48:54.733Z,17.30
2019-04-14T10:51:30.055Z,17.70
2019-04-14T10:53:56.506Z,18.33
2019-04-14T10:56:25.594Z,17.57
2019-04-14T10:58:54.778Z,16.60
2019-04-14T11:01:27.034Z,16.07
2019-04-14T11:04:09.102Z,17.00
2019-04-14T11:07:09.125Z,18.60
2019-04-14T11:10:02.388Z,18.50
2019-04-14T11:12:36.191Z,19.63
2019-04-14T11:15:30.556Z,19.07
2019-04-14T11:18:06.764Z,16.90
2019-04-14T11:20:35.659Z,18.73
2019-04-14T11:23:16.714Z,17.70
2019-04-14T11:25:46.823Z,20.13
2019-04-14T11:28:15.754Z,19.20
2019-04-14T11:30:44.784Z,17.10
2019-04-14T11:33:32.048Z,19.13
2019-04-14T11:36:23.130Z,17.50
2019-04-14T11:38:59.962Z,16.30
2019-04-14T11:41:28.861Z,17.70
2019-04-14T11:43:57.957Z,18.80
2019-04-14T11:46:26.847Z,18.33
2019-04-14T11:48:56.127Z,19.23
2019-04-14T11:51:25.055Z,18.87
2019-04-14T11:53:54.177Z,18.53
2019-04-14T11:56:23.621Z,17.20
2019-04-14T11:58:56.007Z,19.23
2019-04-14T12:01:53.145Z,19.47
2019-04-14T12:04:52.919Z,16.93
2019-04-14T12:07:43.798Z,17.13
2019-04-14T12:10:15.874Z,16.23
2019-04-14T12:12:45.061Z,17.80
2019-04-14T12:15:16.524Z,17.93
2019-04-14T12:17:45.320Z,16.57
2019-04-14T12:20:18.789Z,17.10
2019-04-14T12:22:47.975Z,18.87
2019-04-14T12:25:19.525Z,17.50
2019-04-14T12:27:51.572Z,18.37
2019-04-14T12:30:22.296Z,16.53
2019-04-14T12:32:51.783Z,17.67
2019-04-14T12:35:21.031Z,17.20
2019-04-14T12:37:53.429Z,17.50
2019-04-14T12:40:22.641Z,17.40
2019-04-14T12:43:10.725Z,16.27
2019-04-14T12:46:08.175Z,17.90
2019-04-14T12:49:00.170Z,18.97
2019-04-14T12:51:53.734Z,18.40
2019-04-14T12:54:26.591Z,18.33
2019-04-14T12:56:57.950Z,18.10
2019-04-14T12:59:39.155Z,17.63
2019-04-14T13:02:27.549Z,17.00
2019-04-14T13:04:56.585Z,17.67
2019-04-14T13:07:37.927Z,17.70
2019-04-14T13:10:08.160Z,17.33
2019-04-14T13:12:39.550Z,17.53
2019-04-14T13:15:08.755Z,18.23
2019-04-14T13:17:55.618Z,17.63
2019-04-14T13:20:39.149Z,15.87
2019-04-14T13:23:09.335Z,18.03
2019-04-14T13:25:38.690Z,17.10
2019-04-14T13:28:08.076Z,16.63
2019-04-14T13:30:43.999Z,16.10
2019-04-14T13:33:13.212Z,17.30
2019-04-14T13:35:42.396Z,15.00
2019-04-14T13:38:11.544Z,15.50
2019-04-14T13:40:43.930Z,15.77
2019-04-14T13:43:15.200Z,16.13
2019-04-14T13:45:45.176Z,17.30
2019-04-14T13:48:21.608Z,15.97
2019-04-14T13:50:50.786Z,15.70
2019-04-14T13:53:21.035Z,14.67
2019-04-14T13:55:50.211Z,15.53
2019-04-14T13:58:24.620Z,14.83
2019-04-14T14:01:16.840Z,15.80
2019-04-14T14:03:57.377Z,15.20
2019-04-14T14:06:26.480Z,14.17
2019-04-14T14:08:55.544Z,15.03
2019-04-14T14:11:41.986Z,15.57
2019-04-14T14:14:21.824Z,15.20
2019-04-14T14:17:27.225Z,14.07
2019-04-14T14:20:35.806Z,16.90
2019-04-14T14:23:27.684Z,16.33
2019-04-14T14:26:10.522Z,17.23
2019-04-14T14:28:39.732Z,16.50
2019-04-14T14:31:09.075Z,16.77
2019-04-14T14:33:41.542Z,15.80
2019-04-14T14:36:26.680Z,15.97
2019-04-14T14:39:16.331Z,16.07
2019-04-14T14:41:51.601Z,15.33
2019-04-14T14:44:25.651Z,16.40
2019-04-14T14:47:15.120Z,15.83
2019-04-14T14:50:18.211Z,16.17
2019-04-14T14:53:22.176Z,16.13
2019-04-14T14:55:50.522Z,16.40
2019-04-14T14:58:22.228Z,17.10
2019-04-14T15:00:51.377Z,16.13
2019-04-14T15:03:21.524Z,14.83
2019-04-14T15:05:50.521Z,17.03
2019-04-14T15:08:19.641Z,15.03
2019-04-14T15:10:48.775Z,17.13
2019-04-14T15:13:17.904Z,16.17
2019-04-14T15:15:47.052Z,16.93
2019-04-14T15:18:16.161Z,16.80
2019-04-14T15:20:45.226Z,16.00
2019-04-14T15:23:24.850Z,15.80
2019-04-14T15:25:48.963Z,16.33
2019-04-14T15:28:18.395Z,16.77
2019-04-14T15:30:47.540Z,16.30
2019-04-14T15:33:16.718Z,15.93
2019-04-14T15:35:45.826Z,17.50
2019-04-14T15:38:16.838Z,17.23
2019-04-14T15:40:46.148Z,16.63
2019-04-14T15:43:19.949Z,15.57
2019-04-14T15:46:06.592Z,15.77
2019-04-14T15:48:39.658Z,15.00
2019-04-14T15:51:08.902Z,16.27
2019-04-14T15:53:38.565Z,15.17
2019-04-14T15:56:08.654Z,14.50
2019-04-14T15:59:02.704Z,15.67
2019-04-14T16:01:51.181Z,15.57
2019-04-14T16:04:31.829Z,16.60
2019-04-14T16:07:21.762Z,16.90
2019-04-14T16:10:05.955Z,16.87
2019-04-14T16:12:56.713Z,17.40
2019-04-14T16:15:59.946Z,16.33
2019-04-14T16:18:46.751Z,17.60
2019-04-14T16:21:15.865Z,15.40
2019-04-14T16:23:50.885Z,17.73
2019-04-14T16:26:20.761Z,17.93
2019-04-14T16:29:14.925Z,19.03
2019-04-14T16:32:09.188Z,17.57
2019-04-14T16:34:53.979Z,18.33
2019-04-14T16:37:22.950Z,18.27
2019-04-14T16:39:51.939Z,18.43
2019-04-14T16:42:20.889Z,17.27
2019-04-14T16:44:49.998Z,18.80
2019-04-14T16:47:19.046Z,19.13
2019-04-14T16:49:48.116Z,18.70
2019-04-14T16:52:45.399Z,23.00
2019-04-14T16:55:23.618Z,19.20
2019-04-14T16:58:10.513Z,23.67
2019-04-14T17:00:42.883Z,21.37
2019-04-14T17:03:11.810Z,20.63
2019-04-14T17:05:40.685Z,19.47
2019-04-14T17:08:09.576Z,20.63
2019-04-14T17:10:38.451Z,20.83
2019-04-14T17:13:07.467Z,23.85
2019-04-14T17:15:59.414Z,22.60
2019-04-14T17:19:04.610Z,20.03
2019-04-14T17:21:49.739Z,20.87
2019-04-14T17:24:32.823Z,19.53
2019-04-14T17:27:10.887Z,20.90
2019-04-14T17:29:49.249Z,18.70
2019-04-14T17:32:30.420Z,18.77
2019-04-14T17:35:21.259Z,18.57
2019-04-14T17:37:53.783Z,19.30
2019-04-14T17:40:33.002Z,19.17
2019-04-14T17:43:11.882Z,18.43
2019-04-14T17:45:58.826Z,20.63
2019-04-14T17:48:47.778Z,19.50
2019-04-14T17:51:35.735Z,18.17
2019-04-14T17:54:30.001Z,17.73
2019-04-14T17:57:16.812Z,18.75
2019-04-14T17:59:54.141Z,18.83
2019-04-14T18:02:30.804Z,18.50
2019-04-14T18:05:09.098Z,18.63
2019-04-14T18:08:06.253Z,18.70
2019-04-14T18:10:44.159Z,18.40
2019-04-14T18:13:20.674Z,18.17
2019-04-14T18:16:01.449Z,18.40
2019-04-14T18:18:51.425Z,17.80
2019-04-14T18:21:20.450Z,18.27
2019-04-14T18:23:49.486Z,17.67
2019-04-14T18:26:18.440Z,19.30
2019-04-14T18:29:13.293Z,20.50
2019-04-14T18:31:52.180Z,19.40
2019-04-14T18:34:52.498Z,18.10
2019-04-14T18:37:43.802Z,18.00
2019-04-14T18:40:40.943Z,18.53
2019-04-14T18:43:31.988Z,18.87
2019-04-14T18:46:20.051Z,20.07
2019-04-14T18:48:57.248Z,20.10
2019-04-14T18:51:34.623Z,21.23
2019-04-14T18:54:38.146Z,19.57
2019-04-14T18:57:24.178Z,20.97
2019-04-14T19:00:03.526Z,21.53
2019-04-14T19:02:32.528Z,20.73
2019-04-14T19:05:01.501Z,21.27
2019-04-14T19:07:30.476Z,22.37
2019-04-14T19:09:59.543Z,22.17
2019-04-14T19:12:45.386Z,22.07
2019-04-14T19:15:38.671Z,21.13
2019-04-14T19:18:44.763Z,21.53
2019-04-14T19:21:18.631Z,21.17
2019-04-14T19:23:48.687Z,22.50
2019-04-14T19:26:27.375Z,20.90
2019-04-14T19:28:56.351Z,21.60
2019-04-14T19:31:27.283Z,21.00
2019-04-14T19:33:56.239Z,22.73
2019-04-14T19:36:25.272Z,23.70
2019-04-14T19:38:54.288Z,24.77
2019-04-14T19:41:23.300Z,24.57
2019-04-14T19:43:52.186Z,21.67
2019-04-14T19:46:21.672Z,24.33
2019-04-14T19:48:50.656Z,24.03
2019-04-14T19:51:20.525Z,24.87
2019-04-14T19:53:57.507Z,24.63
2019-04-14T19:56:26.502Z,25.65
2019-04-14T19:58:55.496Z,25.30
2019-04-14T20:01:24.445Z,26.30
2019-04-14T20:03:53.422Z,26.03
2019-04-14T20:06:22.656Z,25.67
2019-04-14T20:08:52.676Z,24.00
2019-04-14T20:11:23.687Z,23.77
2019-04-14T20:13:52.648Z,23.83
2019-04-14T20:16:39.451Z,23.70
2019-04-14T20:19:27.926Z,23.73
2019-04-14T20:22:09.917Z,23.70
2019-04-14T20:24:47.475Z,28.07
2019-04-14T20:27:23.414Z,26.83
2019-04-14T20:29:54.764Z,27.43
2019-04-14T20:32:26.679Z,25.03
2019-04-14T20:34:55.775Z,24.73
2019-04-14T20:37:25.975Z,27.07
2019-04-14T20:39:55.968Z,26.47
2019-04-14T20:42:24.957Z,27.83
2019-04-14T20:44:54.275Z,28.80
2019-04-14T20:47:23.282Z,26.73
2019-04-14T20:49:52.118Z,29.47
2019-04-14T20:52:21.937Z,29.00
2019-04-14T20:54:51.845Z,28.17
2019-04-14T20:57:20.837Z,29.03
2019-04-14T20:59:49.716Z,28.53
2019-04-14T21:02:38.775Z,28.17
2019-04-14T21:05:29.836Z,29.10
2019-04-14T21:08:23.902Z,29.87
2019-04-14T21:11:04.357Z,29.23
2019-04-14T21:13:52.264Z,28.67
2019-04-14T21:16:31.016Z,29.73
2019-04-14T21:19:08.012Z,30.80
2019-04-14T21:22:03.011Z,29.60
2019-04-14T21:24:42.420Z,29.23
2019-04-14T21:27:17.736Z,29.97
2019-04-14T21:30:04.331Z,29.93
2019-04-14T21:32:37.888Z,29.30
2019-04-14T21:35:25.887Z,30.80
2019-04-14T21:38:08.994Z,31.77
2019-04-14T21:40:59.843Z,29.77
2019-04-14T21:43:28.953Z,39.10
2019-04-14T21:45:58.958Z,31.40
2019-04-14T21:48:27.782Z,30.67
2019-04-14T21:50:56.667Z,31.07
2019-04-14T21:53:25.605Z,28.33
2019-04-14T21:55:54.573Z,29.40
2019-04-14T21:58:41.120Z,29.43
2019-04-14T22:01:50.556Z,31.47
2019-04-14T22:04:36.285Z,30.87
2019-04-14T22:07:20.087Z,28.93
2019-04-14T22:09:49.448Z,29.83
2019-04-14T22:12:18.350Z,31.70
2019-04-14T22:14:48.194Z,31.50
2019-04-14T22:17:17.158Z,32.77
2019-04-14T22:19:46.006Z,29.60
2019-04-14T22:22:14.740Z,30.40
2019-04-14T22:24:43.739Z,30.00
2019-04-14T22:27:12.571Z,30.33
2019-04-14T22:29:41.433Z,29.50
2019-04-14T22:32:10.696Z,32.07
2019-04-14T22:34:39.588Z,28.73
2019-04-14T22:37:08.569Z,28.87
2019-04-14T22:39:39.269Z,29.17
2019-04-14T22:42:08.127Z,30.97
2019-04-14T22:44:37.021Z,31.10
2019-04-14T22:47:06.002Z,27.10
2019-04-14T22:49:34.897Z,32.40
2019-04-14T22:52:04.012Z,30.90
2019-04-14T22:54:32.894Z,29.00
2019-04-14T22:57:01.801Z,28.77
2019-04-14T22:59:30.650Z,29.07
2019-04-14T23:02:06.832Z,30.60
2019-04-14T23:05:00.466Z,28.63
2019-04-14T23:07:45.478Z,30.07
2019-04-14T23:10:48.787Z,27.07
2019-04-14T23:13:36.684Z,29.77
2019-04-14T23:16:24.540Z,30.17
2019-04-14T23:19:02.065Z,30.37
2019-04-14T23:22:01.978Z,28.50
2019-04-14T23:24:34.312Z,28.70
2019-04-14T23:27:03.199Z,30.13
2019-04-14T23:29:32.294Z,29.43
2019-04-14T23:32:01.131Z,29.73
2019-04-14T23:34:30.012Z,29.43
2019-04-14T23:36:58.956Z,29.43
2019-04-14T23:39:27.867Z,30.37
2019-04-14T23:41:56.751Z,30.00
2019-04-14T23:44:25.774Z,29.83
2019-04-14T23:46:54.565Z,30.92
2019-04-14T23:49:23.446Z,27.30
2019-04-14T23:51:52.911Z,28.53
2019-04-14T23:54:21.942Z,31.13
2019-04-14T23:56:50.882Z,29.27
2019-04-14T23:59:19.721Z,27.67
